sensor_id;sensor_type;location;lat;lon;timestamp;pressure;altitude;pressure_sealevel;temperature;humidity
60918;BME280;46792;38.854;-9.384;2022-11-09T09:49:06;99867.53;;;16.59;100.00
60918;BME280;46792;38.854;-9.384;2022-11-09T09:51:36;99868.09;;;16.56;100.00
60918;BME280;46792;38.854;-9.384;2022-11-09T09:53:52;99874.72;;;16.50;100.00
60918;BME280;46792;38.854;-9.384;2022-11-09T09:56:01;99879.66;;;16.48;100.00
60918;BME280;46792;38.854;-9.384;2022-11-09T10:00:19;99880.03;;;16.60;100.00
60918;BME280;46792;38.854;-9.384;2022-11-09T10:07:17;99880.59;;;16.95;100.00
60918;BME280;46792;38.854;-9.384;2022-11-09T10:16:33;99887.75;;;17.38;100.00
60918;BME280;46792;38.854;-9.384;2022-11-09T10:23:32;99890.59;;;17.89;100.00
60918;BME280;46792;38.854;-9.384;2022-11-09T10:25:37;99893.03;;;17.90;100.00
60918;BME280;46792;38.854;-9.384;2022-11-09T10:27:43;99890.41;;;17.85;100.00
60918;BME280;46792;38.854;-9.384;2022-11-09T10:29:47;99890.91;;;17.73;100.00
60918;BME280;46792;38.854;-9.384;2022-11-09T10:32:04;99896.28;;;17.64;100.00
60918;BME280;46792;38.854;-9.384;2022-11-09T10:34:36;99900.91;;;17.50;100.00
60918;BME280;46792;38.854;-9.384;2022-11-09T10:36:44;99900.72;;;17.46;100.00
60918;BME280;46792;38.854;-9.384;2022-11-09T10:39:06;99898.06;;;17.41;100.00
60918;BME280;46792;38.854;-9.384;2022-11-09T10:41:38;99905.97;;;17.57;100.00
60918;BME280;46792;38.854;-9.384;2022-11-09T10:43:58;99903.34;;;17.66;99.83
60918;BME280;46792;38.854;-9.384;2022-11-09T10:46:17;99912.03;;;17.82;98.86
60918;BME280;46792;38.854;-9.384;2022-11-09T10:48:39;99913.88;;;17.86;97.13
60918;BME280;46792;38.854;-9.384;2022-11-09T10:50:58;99912.88;;;17.96;96.86
60918;BME280;46792;38.854;-9.384;2022-11-09T10:53:22;99916.00;;;18.17;96.61
60918;BME280;46792;38.854;-9.384;2022-11-09T10:58:38;99920.88;;;18.57;91.97
60918;BME280;46792;38.854;-9.384;2022-11-09T11:01:02;99921.56;;;18.63;91.18
60918;BME280;46792;38.854;-9.384;2022-11-09T11:03:23;99927.72;;;18.68;90.63
60918;BME280;46792;38.854;-9.384;2022-11-09T11:05:42;99920.22;;;18.74;90.54
60918;BME280;46792;38.854;-9.384;2022-11-09T11:08:20;99931.09;;;18.88;90.93
60918;BME280;46792;38.854;-9.384;2022-11-09T11:10:41;99924.78;;;19.02;88.93
60918;BME280;46792;38.854;-9.384;2022-11-09T11:15:27;99937.78;;;18.96;84.78
60918;BME280;46792;38.854;-9.384;2022-11-09T11:17:47;99934.63;;;18.66;86.42
60918;BME280;46792;38.854;-9.384;2022-11-09T11:20:30;99939.09;;;18.62;88.53
60918;BME280;46792;38.854;-9.384;2022-11-09T11:22:50;99944.97;;;18.69;88.72
60918;BME280;46792;38.854;-9.384;2022-11-09T11:25:23;99943.66;;;18.89;89.40
60918;BME280;46792;38.854;-9.384;2022-11-09T11:27:51;99934.28;;;19.04;89.11
60918;BME280;46792;38.854;-9.384;2022-11-09T11:30:23;99937.31;;;19.25;87.17
60918;BME280;46792;38.854;-9.384;2022-11-09T11:32:46;99942.09;;;19.42;87.06
60918;BME280;46792;38.854;-9.384;2022-11-09T11:35:34;99944.59;;;19.61;84.69
60918;BME280;46792;38.854;-9.384;2022-11-09T11:40:36;99944.31;;;19.63;80.46
60918;BME280;46792;38.854;-9.384;2022-11-09T11:43:01;99943.78;;;19.52;80.83
60918;BME280;46792;38.854;-9.384;2022-11-09T11:51:01;99938.00;;;19.63;82.97
60918;BME280;46792;38.854;-9.384;2022-11-09T12:14:56;99924.06;;;19.73;76.62
60918;BME280;46792;38.854;-9.384;2022-11-09T12:17:34;99923.19;;;19.64;79.06
60918;BME280;46792;38.854;-9.384;2022-11-09T12:23:17;99931.00;;;19.79;77.91
60918;BME280;46792;38.854;-9.384;2022-11-09T12:25:45;99934.16;;;19.95;78.03
60918;BME280;46792;38.854;-9.384;2022-11-09T12:28:25;99936.72;;;20.00;78.27
60918;BME280;46792;38.854;-9.384;2022-11-09T12:31:13;99925.78;;;20.00;76.51
60918;BME280;46792;38.854;-9.384;2022-11-09T12:33:49;99921.28;;;20.04;75.46
60918;BME280;46792;38.854;-9.384;2022-11-09T12:36:22;99921.91;;;20.01;76.14
60918;BME280;46792;38.854;-9.384;2022-11-09T12:38:55;99917.75;;;20.13;76.99
60918;BME280;46792;38.854;-9.384;2022-11-09T12:41:21;99915.84;;;20.22;77.39
60918;BME280;46792;38.854;-9.384;2022-11-09T12:44:00;99918.56;;;20.13;75.68
60918;BME280;46792;38.854;-9.384;2022-11-09T12:46:25;99902.75;;;20.19;76.53
60918;BME280;46792;38.854;-9.384;2022-11-09T12:48:47;99914.72;;;20.32;76.24
60918;BME280;46792;38.854;-9.384;2022-11-09T12:51:09;99912.63;;;20.29;75.00
60918;BME280;46792;38.854;-9.384;2022-11-09T12:53:34;99915.84;;;20.31;75.52
60918;BME280;46792;38.854;-9.384;2022-11-09T12:55:58;99902.94;;;20.40;74.29
60918;BME280;46792;38.854;-9.384;2022-11-09T12:58:30;99907.16;;;20.38;74.24
60918;BME280;46792;38.854;-9.384;2022-11-09T13:00:55;99905.38;;;20.33;73.19
60918;BME280;46792;38.854;-9.384;2022-11-09T13:03:21;99913.09;;;20.31;73.53
60918;BME280;46792;38.854;-9.384;2022-11-09T13:05:41;99910.84;;;20.33;75.81
60918;BME280;46792;38.854;-9.384;2022-11-09T13:08:02;99904.72;;;20.54;74.81
60918;BME280;46792;38.854;-9.384;2022-11-09T13:13:04;99903.59;;;20.37;72.82
60918;BME280;46792;38.854;-9.384;2022-11-09T13:15:38;99912.28;;;20.30;73.56
60918;BME280;46792;38.854;-9.384;2022-11-09T13:18:03;99914.56;;;20.37;73.77
60918;BME280;46792;38.854;-9.384;2022-11-09T13:20:50;99910.34;;;20.22;73.74
60918;BME280;46792;38.854;-9.384;2022-11-09T13:25:49;99914.38;;;20.33;72.83
60918;BME280;46792;38.854;-9.384;2022-11-09T13:30:50;99906.81;;;20.48;73.30
60918;BME280;46792;38.854;-9.384;2022-11-09T13:33:20;99908.63;;;20.61;71.26
60918;BME280;46792;38.854;-9.384;2022-11-09T13:37:59;99907.78;;;20.52;72.45
60918;BME280;46792;38.854;-9.384;2022-11-09T13:45:33;99909.25;;;20.58;71.29
60918;BME280;46792;38.854;-9.384;2022-11-09T13:47:54;99900.06;;;20.54;72.21
60918;BME280;46792;38.854;-9.384;2022-11-09T13:50:27;99911.03;;;20.54;71.06
60918;BME280;46792;38.854;-9.384;2022-11-09T13:52:59;99908.91;;;20.51;71.14
60918;BME280;46792;38.854;-9.384;2022-11-09T13:55:39;99904.72;;;20.54;70.62
60918;BME280;46792;38.854;-9.384;2022-11-09T13:58:12;99904.56;;;20.41;72.29
60918;BME280;46792;38.854;-9.384;2022-11-09T14:00:32;99913.75;;;20.28;72.78
60918;BME280;46792;38.854;-9.384;2022-11-09T14:02:54;99912.75;;;20.24;73.32
60918;BME280;46792;38.854;-9.384;2022-11-09T14:07:46;99908.00;;;19.89;74.07
60918;BME280;46792;38.854;-9.384;2022-11-09T14:13:15;99913.84;;;19.65;76.54
60918;BME280;46792;38.854;-9.384;2022-11-09T14:22:50;99908.75;;;19.72;78.04
60918;BME280;46792;38.854;-9.384;2022-11-09T14:25:19;99912.81;;;19.83;77.74
60918;BME280;46792;38.854;-9.384;2022-11-09T14:27:45;99904.59;;;19.83;77.27
60918;BME280;46792;38.854;-9.384;2022-11-09T14:30:19;99904.88;;;19.82;74.92
60918;BME280;46792;38.854;-9.384;2022-11-09T14:32:45;99901.50;;;19.76;76.42
60918;BME280;46792;38.854;-9.384;2022-11-09T14:35:30;99898.59;;;19.72;77.24
60918;BME280;46792;38.854;-9.384;2022-11-09T14:37:51;99895.72;;;19.78;77.45
60918;BME280;46792;38.854;-9.384;2022-11-09T14:40:29;99898.53;;;19.95;77.46
60918;BME280;46792;38.854;-9.384;2022-11-09T14:45:14;99899.84;;;20.06;74.67
60918;BME280;46792;38.854;-9.384;2022-11-09T14:47:36;99903.22;;;20.03;74.38
60918;BME280;46792;38.854;-9.384;2022-11-09T14:49:56;99908.06;;;20.06;74.75
60918;BME280;46792;38.854;-9.384;2022-11-09T14:52:19;99904.97;;;19.99;74.77
60918;BME280;46792;38.854;-9.384;2022-11-09T14:54:42;99901.28;;;19.95;75.32
60918;BME280;46792;38.854;-9.384;2022-11-09T14:57:02;99907.00;;;19.85;75.72
60918;BME280;46792;38.854;-9.384;2022-11-09T14:59:29;99908.44;;;19.82;75.28
60918;BME280;46792;38.854;-9.384;2022-11-09T15:02:16;99899.72;;;19.71;77.31
60918;BME280;46792;38.854;-9.384;2022-11-09T15:04:56;99903.56;;;19.70;77.67
60918;BME280;46792;38.854;-9.384;2022-11-09T15:07:18;99901.41;;;19.58;77.38
60918;BME280;46792;38.854;-9.384;2022-11-09T15:09:43;99898.50;;;19.55;76.51
60918;BME280;46792;38.854;-9.384;2022-11-09T15:12:12;99907.50;;;19.47;78.15
60918;BME280;46792;38.854;-9.384;2022-11-09T15:14:33;99896.41;;;19.52;78.33
60918;BME280;46792;38.854;-9.384;2022-11-09T15:19:56;99905.31;;;19.66;79.16
60918;BME280;46792;38.854;-9.384;2022-11-09T15:28:21;99905.56;;;19.47;78.77
60918;BME280;46792;38.854;-9.384;2022-11-09T15:33:09;99912.69;;;19.57;79.75
60918;BME280;46792;38.854;-9.384;2022-11-09T15:35:28;99900.41;;;19.45;78.77
60918;BME280;46792;38.854;-9.384;2022-11-09T15:37:53;99903.31;;;19.49;78.92
60918;BME280;46792;38.854;-9.384;2022-11-09T15:40:17;99902.97;;;19.42;79.49
60918;BME280;46792;38.854;-9.384;2022-11-09T15:42:36;99907.91;;;19.31;78.00
60918;BME280;46792;38.854;-9.384;2022-11-09T15:44:58;99911.53;;;19.18;78.74
60918;BME280;46792;38.854;-9.384;2022-11-09T15:47:35;99910.56;;;19.13;79.72
60918;BME280;46792;38.854;-9.384;2022-11-09T15:49:55;99909.44;;;19.14;80.26
60918;BME280;46792;38.854;-9.384;2022-11-09T15:52:14;99906.25;;;19.21;80.45
60918;BME280;46792;38.854;-9.384;2022-11-09T15:54:33;99911.16;;;19.33;80.72
60918;BME280;46792;38.854;-9.384;2022-11-09T15:56:53;99916.44;;;19.29;81.06
60918;BME280;46792;38.854;-9.384;2022-11-09T15:59:22;99914.81;;;19.28;81.01
60918;BME280;46792;38.854;-9.384;2022-11-09T16:01:41;99907.53;;;19.24;80.87
60918;BME280;46792;38.854;-9.384;2022-11-09T16:04:00;99912.97;;;19.15;81.29
60918;BME280;46792;38.854;-9.384;2022-11-09T16:06:19;99919.69;;;19.09;82.09
60918;BME280;46792;38.854;-9.384;2022-11-09T16:08:40;99913.06;;;19.10;82.25
60918;BME280;46792;38.854;-9.384;2022-11-09T16:11:03;99928.72;;;19.09;82.21
60918;BME280;46792;38.854;-9.384;2022-11-09T16:13:23;99919.81;;;19.04;82.30
60918;BME280;46792;38.854;-9.384;2022-11-09T16:16:15;99912.97;;;18.92;82.31
60918;BME280;46792;38.854;-9.384;2022-11-09T16:18:35;99907.91;;;18.85;82.58
60918;BME280;46792;38.854;-9.384;2022-11-09T16:20:54;99922.06;;;18.88;82.75
60918;BME280;46792;38.854;-9.384;2022-11-09T16:23:13;99930.22;;;18.79;82.64
60918;BME280;46792;38.854;-9.384;2022-11-09T16:25:51;99921.13;;;18.69;82.75
60918;BME280;46792;38.854;-9.384;2022-11-09T16:28:10;99923.31;;;18.59;83.89
60918;BME280;46792;38.854;-9.384;2022-11-09T16:30:30;99926.56;;;18.47;84.59
60918;BME280;46792;38.854;-9.384;2022-11-09T16:32:49;99933.66;;;18.48;84.71
60918;BME280;46792;38.854;-9.384;2022-11-09T16:35:17;99933.28;;;18.41;85.54
60918;BME280;46792;38.854;-9.384;2022-11-09T16:37:57;99937.81;;;18.45;85.93
60918;BME280;46792;38.854;-9.384;2022-11-09T16:40:19;99930.97;;;18.34;86.43
60918;BME280;46792;38.854;-9.384;2022-11-09T16:42:39;99918.50;;;18.28;86.53
60918;BME280;46792;38.854;-9.384;2022-11-09T16:45:05;99934.72;;;18.24;87.18
60918;BME280;46792;38.854;-9.384;2022-11-09T16:47:26;99935.31;;;18.21;87.62
60918;BME280;46792;38.854;-9.384;2022-11-09T16:49:45;99918.75;;;18.17;88.04
60918;BME280;46792;38.854;-9.384;2022-11-09T16:52:04;99933.81;;;18.15;88.56
60918;BME280;46792;38.854;-9.384;2022-11-09T16:54:23;99928.34;;;18.15;88.52
60918;BME280;46792;38.854;-9.384;2022-11-09T16:56:46;99939.69;;;18.08;89.37
60918;BME280;46792;38.854;-9.384;2022-11-09T16:59:24;99935.13;;;18.03;89.70
60918;BME280;46792;38.854;-9.384;2022-11-09T17:01:58;99929.63;;;17.89;90.35
60918;BME280;46792;38.854;-9.384;2022-11-09T17:04:17;99930.34;;;17.81;91.01
60918;BME280;46792;38.854;-9.384;2022-11-09T17:09:33;99932.56;;;17.65;91.98
60918;BME280;46792;38.854;-9.384;2022-11-09T17:11:52;99934.06;;;17.57;92.32
60918;BME280;46792;38.854;-9.384;2022-11-09T17:14:12;99934.19;;;17.52;92.73
60918;BME280;46792;38.854;-9.384;2022-11-09T17:16:31;99926.91;;;17.47;93.40
60918;BME280;46792;38.854;-9.384;2022-11-09T17:18:52;99933.25;;;17.43;94.01
60918;BME280;46792;38.854;-9.384;2022-11-09T17:21:12;99936.06;;;17.38;94.42
60918;BME280;46792;38.854;-9.384;2022-11-09T17:23:56;99943.22;;;17.33;95.15
60918;BME280;46792;38.854;-9.384;2022-11-09T17:26:16;99942.31;;;17.24;95.79
60918;BME280;46792;38.854;-9.384;2022-11-09T17:28:38;99938.03;;;17.18;96.54
60918;BME280;46792;38.854;-9.384;2022-11-09T17:30:58;99946.81;;;17.15;96.96
60918;BME280;46792;38.854;-9.384;2022-11-09T17:33:18;99956.69;;;17.11;97.39
60918;BME280;46792;38.854;-9.384;2022-11-09T17:35:37;99954.06;;;17.06;97.80
60918;BME280;46792;38.854;-9.384;2022-11-09T17:38:16;99961.22;;;17.01;98.27
60918;BME280;46792;38.854;-9.384;2022-11-09T17:40:35;99957.19;;;16.99;98.70
60918;BME280;46792;38.854;-9.384;2022-11-09T17:42:55;99961.28;;;16.96;98.72
60918;BME280;46792;38.854;-9.384;2022-11-09T17:45:34;99971.16;;;16.92;99.05
60918;BME280;46792;38.854;-9.384;2022-11-09T17:48:12;99968.19;;;16.88;99.58
60918;BME280;46792;38.854;-9.384;2022-11-09T17:50:50;99969.59;;;16.86;99.72
60918;BME280;46792;38.854;-9.384;2022-11-09T17:53:09;99970.78;;;16.80;100.00
60918;BME280;46792;38.854;-9.384;2022-11-09T17:55:28;99972.97;;;16.78;100.00
60918;BME280;46792;38.854;-9.384;2022-11-09T18:00:44;99970.94;;;16.69;100.00
60918;BME280;46792;38.854;-9.384;2022-11-09T18:03:03;99968.50;;;16.68;100.00
60918;BME280;46792;38.854;-9.384;2022-11-09T18:08:13;99980.53;;;16.67;100.00
60918;BME280;46792;38.854;-9.384;2022-11-09T18:10:32;99974.81;;;16.63;100.00
60918;BME280;46792;38.854;-9.384;2022-11-09T18:12:53;99986.34;;;16.60;100.00
60918;BME280;46792;38.854;-9.384;2022-11-09T18:15:12;99984.19;;;16.57;100.00
60918;BME280;46792;38.854;-9.384;2022-11-09T18:17:31;99984.78;;;16.54;100.00
60918;BME280;46792;38.854;-9.384;2022-11-09T18:19:49;99989.41;;;16.53;100.00
60918;BME280;46792;38.854;-9.384;2022-11-09T18:22:09;99987.56;;;16.49;100.00
60918;BME280;46792;38.854;-9.384;2022-11-09T18:24:28;99985.94;;;16.48;100.00
60918;BME280;46792;38.854;-9.384;2022-11-09T18:26:48;99983.00;;;16.44;100.00
60918;BME280;46792;38.854;-9.384;2022-11-09T18:29:07;99976.78;;;16.38;100.00
60918;BME280;46792;38.854;-9.384;2022-11-09T18:31:26;99990.41;;;16.38;100.00
60918;BME280;46792;38.854;-9.384;2022-11-09T18:33:45;99990.94;;;16.40;100.00
60918;BME280;46792;38.854;-9.384;2022-11-09T18:36:21;99996.56;;;16.49;100.00
60918;BME280;46792;38.854;-9.384;2022-11-09T18:38:42;99988.03;;;16.56;100.00
60918;BME280;46792;38.854;-9.384;2022-11-09T18:43:23;99995.16;;;16.71;100.00
60918;BME280;46792;38.854;-9.384;2022-11-09T18:45:42;100004.16;;;16.71;100.00
60918;BME280;46792;38.854;-9.384;2022-11-09T18:48:19;100002.06;;;16.63;100.00
60918;BME280;46792;38.854;-9.384;2022-11-09T18:50:38;99997.09;;;16.51;100.00
60918;BME280;46792;38.854;-9.384;2022-11-09T18:52:57;100004.25;;;16.42;100.00
60918;BME280;46792;38.854;-9.384;2022-11-09T18:55:16;100008.19;;;16.36;100.00
60918;BME280;46792;38.854;-9.384;2022-11-09T18:57:36;100012.94;;;16.25;100.00
60918;BME280;46792;38.854;-9.384;2022-11-09T19:00:14;100014.38;;;16.17;100.00
60918;BME280;46792;38.854;-9.384;2022-11-09T19:02:34;100013.91;;;16.10;100.00
60918;BME280;46792;38.854;-9.384;2022-11-09T19:04:53;100015.56;;;16.06;100.00
60918;BME280;46792;38.854;-9.384;2022-11-09T19:07:12;100014.81;;;16.00;100.00
60918;BME280;46792;38.854;-9.384;2022-11-09T19:12:31;100017.63;;;15.95;100.00
60918;BME280;46792;38.854;-9.384;2022-11-09T19:14:50;100012.44;;;15.93;100.00
60918;BME280;46792;38.854;-9.384;2022-11-09T19:17:14;100018.19;;;15.92;100.00
60918;BME280;46792;38.854;-9.384;2022-11-09T19:19:34;100018.75;;;15.89;100.00
60918;BME280;46792;38.854;-9.384;2022-11-09T19:21:54;100024.22;;;15.84;100.00
60918;BME280;46792;38.854;-9.384;2022-11-09T19:24:17;100019.31;;;15.86;100.00
60918;BME280;46792;38.854;-9.384;2022-11-09T19:26:37;100018.25;;;15.81;100.00
60918;BME280;46792;38.854;-9.384;2022-11-09T19:28:57;100020.47;;;15.79;100.00
60918;BME280;46792;38.854;-9.384;2022-11-09T19:31:18;100018.84;;;15.78;100.00
60918;BME280;46792;38.854;-9.384;2022-11-09T19:33:38;100017.22;;;15.77;100.00
60918;BME280;46792;38.854;-9.384;2022-11-09T19:35:56;100019.66;;;15.74;100.00
60918;BME280;46792;38.854;-9.384;2022-11-09T19:38:15;100026.22;;;15.73;100.00
60918;BME280;46792;38.854;-9.384;2022-11-09T19:40:35;100022.69;;;15.72;100.00
60918;BME280;46792;38.854;-9.384;2022-11-09T19:42:54;100023.78;;;15.71;100.00
60918;BME280;46792;38.854;-9.384;2022-11-09T19:45:13;100025.94;;;15.74;100.00
60918;BME280;46792;38.854;-9.384;2022-11-09T19:47:32;100030.56;;;15.74;100.00
60918;BME280;46792;38.854;-9.384;2022-11-09T19:49:51;100022.72;;;15.67;100.00
60918;BME280;46792;38.854;-9.384;2022-11-09T19:52:12;100040.41;;;15.70;100.00
60918;BME280;46792;38.854;-9.384;2022-11-09T19:54:31;100033.63;;;15.67;100.00
60918;BME280;46792;38.854;-9.384;2022-11-09T19:56:50;100034.72;;;15.66;100.00
60918;BME280;46792;38.854;-9.384;2022-11-09T19:59:13;100037.44;;;15.66;100.00
60918;BME280;46792;38.854;-9.384;2022-11-09T20:01:33;100039.88;;;15.68;100.00
60918;BME280;46792;38.854;-9.384;2022-11-09T20:03:54;100050.22;;;15.71;100.00
60918;BME280;46792;38.854;-9.384;2022-11-09T20:06:14;100047.50;;;15.71;100.00
60918;BME280;46792;38.854;-9.384;2022-11-09T20:08:35;100048.25;;;15.76;100.00
60918;BME280;46792;38.854;-9.384;2022-11-09T20:10:55;100047.41;;;15.76;100.00
60918;BME280;46792;38.854;-9.384;2022-11-09T20:13:17;100051.25;;;15.75;100.00
60918;BME280;46792;38.854;-9.384;2022-11-09T20:15:36;100043.38;;;15.73;100.00
60918;BME280;46792;38.854;-9.384;2022-11-09T20:17:55;100052.94;;;15.71;100.00
60918;BME280;46792;38.854;-9.384;2022-11-09T20:20:15;100047.19;;;15.72;100.00
60918;BME280;46792;38.854;-9.384;2022-11-09T20:22:34;100048.00;;;15.73;100.00
60918;BME280;46792;38.854;-9.384;2022-11-09T20:24:54;100045.56;;;15.71;100.00
60918;BME280;46792;38.854;-9.384;2022-11-09T20:27:13;100055.88;;;15.74;100.00
60918;BME280;46792;38.854;-9.384;2022-11-09T20:29:32;100057.28;;;15.72;100.00
60918;BME280;46792;38.854;-9.384;2022-11-09T20:31:51;100056.97;;;15.73;100.00
60918;BME280;46792;38.854;-9.384;2022-11-09T20:34:12;100066.47;;;15.76;100.00
60918;BME280;46792;38.854;-9.384;2022-11-09T20:36:31;100065.63;;;15.80;100.00
60918;BME280;46792;38.854;-9.384;2022-11-09T20:38:50;100066.13;;;15.82;100.00
60918;BME280;46792;38.854;-9.384;2022-11-09T20:41:12;100068.63;;;15.79;100.00
60918;BME280;46792;38.854;-9.384;2022-11-09T20:43:32;100070.56;;;15.78;100.00
60918;BME280;46792;38.854;-9.384;2022-11-09T20:45:52;100066.47;;;15.76;100.00
60918;BME280;46792;38.854;-9.384;2022-11-09T20:48:15;100065.19;;;15.68;100.00
60918;BME280;46792;38.854;-9.384;2022-11-09T20:50:43;100075.22;;;15.73;100.00
60918;BME280;46792;38.854;-9.384;2022-11-09T20:53:03;100074.66;;;15.76;100.00
60918;BME280;46792;38.854;-9.384;2022-11-09T20:55:21;100081.47;;;15.73;100.00
60918;BME280;46792;38.854;-9.384;2022-11-09T20:57:42;100072.81;;;15.66;100.00
60918;BME280;46792;38.854;-9.384;2022-11-09T21:00:02;100065.81;;;15.60;100.00
60918;BME280;46792;38.854;-9.384;2022-11-09T21:02:22;100083.75;;;15.61;100.00
60918;BME280;46792;38.854;-9.384;2022-11-09T21:04:41;100082.16;;;15.55;100.00
60918;BME280;46792;38.854;-9.384;2022-11-09T21:07:00;100085.97;;;15.54;100.00
60918;BME280;46792;38.854;-9.384;2022-11-09T21:09:20;100091.50;;;15.43;100.00
60918;BME280;46792;38.854;-9.384;2022-11-09T21:11:40;100086.66;;;15.35;100.00
60918;BME280;46792;38.854;-9.384;2022-11-09T21:14:18;100090.22;;;15.30;100.00
60918;BME280;46792;38.854;-9.384;2022-11-09T21:16:38;100091.09;;;15.20;100.00
60918;BME280;46792;38.854;-9.384;2022-11-09T21:18:57;100096.59;;;15.15;100.00
60918;BME280;46792;38.854;-9.384;2022-11-09T21:21:24;100098.00;;;15.08;100.00
60918;BME280;46792;38.854;-9.384;2022-11-09T21:23:43;100083.34;;;14.98;100.00
60918;BME280;46792;38.854;-9.384;2022-11-09T21:26:21;100089.06;;;14.97;100.00
60918;BME280;46792;38.854;-9.384;2022-11-09T21:28:59;100091.78;;;14.97;100.00
60918;BME280;46792;38.854;-9.384;2022-11-09T21:36:53;100102.13;;;15.00;100.00
60918;BME280;46792;38.854;-9.384;2022-11-09T21:39:12;100098.28;;;15.01;100.00
60918;BME280;46792;38.854;-9.384;2022-11-09T21:41:31;100107.56;;;15.00;100.00
60918;BME280;46792;38.854;-9.384;2022-11-09T21:43:57;100103.72;;;15.01;100.00
60918;BME280;46792;38.854;-9.384;2022-11-09T21:46:16;100098.81;;;15.03;100.00
60918;BME280;46792;38.854;-9.384;2022-11-09T21:48:34;100106.16;;;15.02;100.00
60918;BME280;46792;38.854;-9.384;2022-11-09T21:50:56;100110.50;;;15.03;100.00
60918;BME280;46792;38.854;-9.384;2022-11-09T21:53:15;100113.50;;;15.02;100.00
60918;BME280;46792;38.854;-9.384;2022-11-09T21:58:31;100111.34;;;14.99;100.00
60918;BME280;46792;38.854;-9.384;2022-11-09T22:00:50;100114.63;;;14.96;100.00
60918;BME280;46792;38.854;-9.384;2022-11-09T22:03:12;100114.63;;;14.96;100.00
60918;BME280;46792;38.854;-9.384;2022-11-09T22:05:31;100107.81;;;14.93;100.00
60918;BME280;46792;38.854;-9.384;2022-11-09T22:13:49;100125.53;;;14.90;100.00
60918;BME280;46792;38.854;-9.384;2022-11-09T22:16:32;100116.03;;;14.88;100.00
60918;BME280;46792;38.854;-9.384;2022-11-09T22:24:26;100119.53;;;14.94;100.00
60918;BME280;46792;38.854;-9.384;2022-11-09T22:26:45;100121.97;;;14.95;100.00
60918;BME280;46792;38.854;-9.384;2022-11-09T22:32:20;100106.47;;;14.96;100.00
60918;BME280;46792;38.854;-9.384;2022-11-09T22:34:38;100114.09;;;14.94;100.00
60918;BME280;46792;38.854;-9.384;2022-11-09T22:36:57;100105.41;;;14.92;100.00
60918;BME280;46792;38.854;-9.384;2022-11-09T22:39:16;100115.72;;;14.89;100.00
60918;BME280;46792;38.854;-9.384;2022-11-09T22:41:36;100107.09;;;14.82;100.00
60918;BME280;46792;38.854;-9.384;2022-11-09T22:43:55;100125.03;;;14.83;100.00
60918;BME280;46792;38.854;-9.384;2022-11-09T22:46:15;100108.97;;;14.82;100.00
60918;BME280;46792;38.854;-9.384;2022-11-09T22:48:36;100115.25;;;14.82;100.00
60918;BME280;46792;38.854;-9.384;2022-11-09T22:53:52;100110.31;;;14.84;100.00
60918;BME280;46792;38.854;-9.384;2022-11-09T22:59:26;100115.19;;;14.87;100.00
60918;BME280;46792;38.854;-9.384;2022-11-09T23:01:45;100111.94;;;14.85;100.00
60918;BME280;46792;38.854;-9.384;2022-11-09T23:04:05;100110.59;;;14.83;100.00
60918;BME280;46792;38.854;-9.384;2022-11-09T23:06:24;100110.63;;;14.78;100.00
60918;BME280;46792;38.854;-9.384;2022-11-09T23:11:40;100111.75;;;14.71;100.00
60918;BME280;46792;38.854;-9.384;2022-11-09T23:13:59;100094.63;;;14.60;100.00
60918;BME280;46792;38.854;-9.384;2022-11-09T23:18:56;100107.66;;;14.69;100.00
60918;BME280;46792;38.854;-9.384;2022-11-09T23:21:17;100101.13;;;14.70;100.00
60918;BME280;46792;38.854;-9.384;2022-11-09T23:23:36;100106.31;;;14.71;100.00
60918;BME280;46792;38.854;-9.384;2022-11-09T23:25:55;100108.72;;;14.73;100.00
60918;BME280;46792;38.854;-9.384;2022-11-09T23:28:18;100103.56;;;14.77;100.00
60918;BME280;46792;38.854;-9.384;2022-11-09T23:30:37;100098.13;;;14.77;100.00
60918;BME280;46792;38.854;-9.384;2022-11-09T23:33:00;100103.28;;;14.78;100.00
60918;BME280;46792;38.854;-9.384;2022-11-09T23:35:19;100103.56;;;14.77;100.00
60918;BME280;46792;38.854;-9.384;2022-11-09T23:40:38;100102.22;;;14.69;100.00
60918;BME280;46792;38.854;-9.384;2022-11-09T23:43:01;100106.56;;;14.70;100.00
60918;BME280;46792;38.854;-9.384;2022-11-09T23:45:20;100104.94;;;14.69;100.00
60918;BME280;46792;38.854;-9.384;2022-11-09T23:50:36;100103.34;;;14.68;100.00
60918;BME280;46792;38.854;-9.384;2022-11-09T23:52:56;100106.06;;;14.68;100.00
60918;BME280;46792;38.854;-9.384;2022-11-09T23:55:17;100098.69;;;14.68;100.00
60918;BME280;46792;38.854;-9.384;2022-11-09T23:57:36;100103.06;;;14.69;100.00
60918;BME280;46792;38.854;-9.384;2022-11-09T23:59:55;100104.94;;;14.69;100.00
